sensor_id;sensor_type;location;lat;lon;timestamp;pressure;altitude;pressure_sealevel;temperature;humidity
59608;BME280;45426;44.726;10.390;2022-09-13T00:00:40;100361.78;;;22.73;100.00
59608;BME280;45426;44.726;10.390;2022-09-13T00:03:06;100371.16;;;22.52;100.00
59608;BME280;45426;44.726;10.390;2022-09-13T00:05:32;100367.50;;;21.89;100.00
59608;BME280;45426;44.726;10.390;2022-09-13T00:08:01;100372.03;;;21.73;100.00
59608;BME280;45426;44.726;10.390;2022-09-13T00:10:26;100368.31;;;22.24;100.00
59608;BME280;45426;44.726;10.390;2022-09-13T00:12:52;100372.78;;;21.73;100.00
59608;BME280;45426;44.726;10.390;2022-09-13T00:15:18;100367.97;;;21.81;100.00
59608;BME280;45426;44.726;10.390;2022-09-13T00:17:47;100372.47;;;21.64;100.00
59608;BME280;45426;44.726;10.390;2022-09-13T00:20:17;100369.47;;;21.51;100.00
59608;BME280;45426;44.726;10.390;2022-09-13T00:22:45;100366.63;;;22.00;100.00
59608;BME280;45426;44.726;10.390;2022-09-13T00:25:11;100369.13;;;21.87;100.00
59608;BME280;45426;44.726;10.390;2022-09-13T00:27:36;100357.97;;;21.94;100.00
59608;BME280;45426;44.726;10.390;2022-09-13T00:30:06;100359.13;;;21.97;100.00
59608;BME280;45426;44.726;10.390;2022-09-13T00:32:33;100365.22;;;22.19;100.00
59608;BME280;45426;44.726;10.390;2022-09-13T00:34:59;100361.66;;;22.53;100.00
59608;BME280;45426;44.726;10.390;2022-09-13T00:37:25;100357.84;;;22.43;100.00
59608;BME280;45426;44.726;10.390;2022-09-13T00:39:51;100371.84;;;22.25;100.00
59608;BME280;45426;44.726;10.390;2022-09-13T00:42:17;100364.00;;;22.20;100.00
59608;BME280;45426;44.726;10.390;2022-09-13T00:47:18;100361.50;;;22.33;100.00
59608;BME280;45426;44.726;10.390;2022-09-13T00:49:51;100362.41;;;21.84;100.00
59608;BME280;45426;44.726;10.390;2022-09-13T00:52:20;100370.75;;;22.19;100.00
59608;BME280;45426;44.726;10.390;2022-09-13T00:54:55;100361.66;;;22.18;100.00
59608;BME280;45426;44.726;10.390;2022-09-13T00:57:23;100352.44;;;21.52;100.00
59608;BME280;45426;44.726;10.390;2022-09-13T01:00:05;100355.53;;;21.62;100.00
59608;BME280;45426;44.726;10.390;2022-09-13T01:02:39;100344.84;;;21.15;100.00
59608;BME280;45426;44.726;10.390;2022-09-13T01:05:06;100343.44;;;21.41;100.00
59608;BME280;45426;44.726;10.390;2022-09-13T01:07:32;100340.94;;;21.61;100.00
59608;BME280;45426;44.726;10.390;2022-09-13T01:09:58;100344.44;;;21.65;100.00
59608;BME280;45426;44.726;10.390;2022-09-13T01:12:31;100344.97;;;21.01;100.00
59608;BME280;45426;44.726;10.390;2022-09-13T01:15:00;100343.97;;;21.29;100.00
59608;BME280;45426;44.726;10.390;2022-09-13T01:17:29;100343.59;;;21.72;100.00
59608;BME280;45426;44.726;10.390;2022-09-13T01:19:56;100341.13;;;21.36;100.00
59608;BME280;45426;44.726;10.390;2022-09-13T01:31:09;100334.91;;;20.69;100.00
59608;BME280;45426;44.726;10.390;2022-09-13T01:33:54;100338.22;;;20.35;100.00
59608;BME280;45426;44.726;10.390;2022-09-13T01:36:50;100338.78;;;20.82;100.00
59608;BME280;45426;44.726;10.390;2022-09-13T01:39:32;100336.59;;;21.60;100.00
59608;BME280;45426;44.726;10.390;2022-09-13T01:50:02;100345.09;;;20.79;100.00
59608;BME280;45426;44.726;10.390;2022-09-13T01:52:39;100341.94;;;21.33;100.00
59608;BME280;45426;44.726;10.390;2022-09-13T02:00:33;100347.84;;;21.35;100.00
59608;BME280;45426;44.726;10.390;2022-09-13T02:03:17;100357.81;;;21.22;100.00
59608;BME280;45426;44.726;10.390;2022-09-13T02:05:55;100350.53;;;21.49;100.00
59608;BME280;45426;44.726;10.390;2022-09-13T02:08:31;100346.34;;;21.27;100.00
59608;BME280;45426;44.726;10.390;2022-09-13T02:11:15;100344.78;;;21.22;100.00
59608;BME280;45426;44.726;10.390;2022-09-13T02:13:54;100350.41;;;21.11;100.00
59608;BME280;45426;44.726;10.390;2022-09-13T02:19:40;100343.53;;;20.82;100.00
59608;BME280;45426;44.726;10.390;2022-09-13T02:22:10;100341.13;;;21.40;100.00
59608;BME280;45426;44.726;10.390;2022-09-13T02:24:41;100337.38;;;21.16;100.00
59608;BME280;45426;44.726;10.390;2022-09-13T02:27:17;100337.16;;;21.37;100.00
59608;BME280;45426;44.726;10.390;2022-09-13T02:29:45;100332.16;;;21.25;100.00
59608;BME280;45426;44.726;10.390;2022-09-13T02:35:00;100330.22;;;21.18;100.00
59608;BME280;45426;44.726;10.390;2022-09-13T02:37:32;100340.13;;;21.16;100.00
59608;BME280;45426;44.726;10.390;2022-09-13T02:40:11;100340.28;;;21.46;100.00
59608;BME280;45426;44.726;10.390;2022-09-13T02:42:42;100332.97;;;20.59;100.00
59608;BME280;45426;44.726;10.390;2022-09-13T02:45:11;100339.25;;;20.59;100.00
59608;BME280;45426;44.726;10.390;2022-09-13T02:47:58;100340.00;;;20.70;100.00
59608;BME280;45426;44.726;10.390;2022-09-13T02:50:45;100343.03;;;20.94;100.00
59608;BME280;45426;44.726;10.390;2022-09-13T02:53:40;100331.25;;;20.86;100.00
59608;BME280;45426;44.726;10.390;2022-09-13T02:58:52;100335.00;;;21.14;100.00
59608;BME280;45426;44.726;10.390;2022-09-13T03:01:21;100341.72;;;21.09;100.00
59608;BME280;45426;44.726;10.390;2022-09-13T03:03:47;100335.66;;;20.77;100.00
59608;BME280;45426;44.726;10.390;2022-09-13T03:06:21;100335.88;;;21.00;100.00
59608;BME280;45426;44.726;10.390;2022-09-13T03:08:47;100326.03;;;20.99;100.00
59608;BME280;45426;44.726;10.390;2022-09-13T03:17:04;100320.03;;;20.45;100.00
59608;BME280;45426;44.726;10.390;2022-09-13T03:19:39;100316.81;;;20.57;100.00
59608;BME280;45426;44.726;10.390;2022-09-13T03:28:49;100325.69;;;20.93;100.00
59608;BME280;45426;44.726;10.390;2022-09-13T03:31:35;100315.25;;;21.16;100.00
59608;BME280;45426;44.726;10.390;2022-09-13T03:34:22;100322.19;;;20.86;100.00
59608;BME280;45426;44.726;10.390;2022-09-13T03:36:56;100327.63;;;20.23;100.00
59608;BME280;45426;44.726;10.390;2022-09-13T03:42:17;100327.13;;;20.46;100.00
59608;BME280;45426;44.726;10.390;2022-09-13T03:44:48;100328.50;;;20.83;100.00
59608;BME280;45426;44.726;10.390;2022-09-13T03:47:16;100332.31;;;21.03;100.00
59608;BME280;45426;44.726;10.390;2022-09-13T03:49:42;100324.84;;;20.97;100.00
59608;BME280;45426;44.726;10.390;2022-09-13T03:52:08;100323.94;;;21.18;100.00
59608;BME280;45426;44.726;10.390;2022-09-13T03:54:36;100335.81;;;21.11;100.00
59608;BME280;45426;44.726;10.390;2022-09-13T03:59:33;100329.50;;;21.10;100.00
59608;BME280;45426;44.726;10.390;2022-09-13T04:02:01;100336.19;;;21.13;100.00
59608;BME280;45426;44.726;10.390;2022-09-13T04:04:26;100331.13;;;21.04;100.00
59608;BME280;45426;44.726;10.390;2022-09-13T04:06:52;100330.78;;;20.99;100.00
59608;BME280;45426;44.726;10.390;2022-09-13T04:09:21;100340.97;;;21.05;100.00
59608;BME280;45426;44.726;10.390;2022-09-13T04:11:47;100340.97;;;21.05;100.00
59608;BME280;45426;44.726;10.390;2022-09-13T04:14:12;100337.03;;;21.06;100.00
59608;BME280;45426;44.726;10.390;2022-09-13T04:16:42;100337.53;;;20.90;100.00
59608;BME280;45426;44.726;10.390;2022-09-13T04:19:08;100336.47;;;20.70;100.00
59608;BME280;45426;44.726;10.390;2022-09-13T04:21:38;100333.53;;;21.02;100.00
59608;BME280;45426;44.726;10.390;2022-09-13T04:24:04;100337.56;;;20.83;100.00
59608;BME280;45426;44.726;10.390;2022-09-13T04:26:30;100336.50;;;20.59;100.00
59608;BME280;45426;44.726;10.390;2022-09-13T04:28:55;100340.16;;;20.42;100.00
59608;BME280;45426;44.726;10.390;2022-09-13T04:31:21;100325.75;;;20.83;100.00
59608;BME280;45426;44.726;10.390;2022-09-13T04:33:48;100333.19;;;20.05;100.00
59608;BME280;45426;44.726;10.390;2022-09-13T04:36:14;100337.22;;;19.53;100.00
59608;BME280;45426;44.726;10.390;2022-09-13T04:38:41;100342.34;;;19.58;100.00
59608;BME280;45426;44.726;10.390;2022-09-13T04:41:07;100339.94;;;19.86;100.00
59608;BME280;45426;44.726;10.390;2022-09-13T04:43:33;100337.16;;;20.04;100.00
59608;BME280;45426;44.726;10.390;2022-09-13T04:45:59;100344.56;;;20.21;100.00
59608;BME280;45426;44.726;10.390;2022-09-13T04:48:27;100343.91;;;19.74;100.00
59608;BME280;45426;44.726;10.390;2022-09-13T04:51:00;100340.34;;;19.91;100.00
59608;BME280;45426;44.726;10.390;2022-09-13T04:53:46;100335.50;;;20.24;100.00
59608;BME280;45426;44.726;10.390;2022-09-13T04:56:11;100339.72;;;20.54;100.00
59608;BME280;45426;44.726;10.390;2022-09-13T04:58:39;100341.97;;;20.73;100.00
59608;BME280;45426;44.726;10.390;2022-09-13T05:01:07;100354.09;;;20.02;100.00
59608;BME280;45426;44.726;10.390;2022-09-13T05:03:34;100363.97;;;19.92;100.00
59608;BME280;45426;44.726;10.390;2022-09-13T05:06:10;100357.91;;;20.41;100.00
59608;BME280;45426;44.726;10.390;2022-09-13T05:08:37;100355.81;;;20.59;100.00
59608;BME280;45426;44.726;10.390;2022-09-13T05:11:03;100357.81;;;20.66;100.00
59608;BME280;45426;44.726;10.390;2022-09-13T05:13:29;100349.00;;;20.85;100.00
59608;BME280;45426;44.726;10.390;2022-09-13T05:15:59;100353.41;;;20.75;100.00
59608;BME280;45426;44.726;10.390;2022-09-13T05:18:33;100356.97;;;20.72;100.00
59608;BME280;45426;44.726;10.390;2022-09-13T05:21:00;100350.97;;;20.85;100.00
59608;BME280;45426;44.726;10.390;2022-09-13T05:23:27;100348.97;;;20.89;100.00
59608;BME280;45426;44.726;10.390;2022-09-13T05:25:59;100361.78;;;20.54;100.00
59608;BME280;45426;44.726;10.390;2022-09-13T05:28:27;100357.97;;;20.19;100.00
59608;BME280;45426;44.726;10.390;2022-09-13T05:31:07;100351.47;;;20.69;100.00
59608;BME280;45426;44.726;10.390;2022-09-13T05:33:35;100349.13;;;20.67;100.00
59608;BME280;45426;44.726;10.390;2022-09-13T05:36:01;100353.56;;;21.13;100.00
59608;BME280;45426;44.726;10.390;2022-09-13T05:38:27;100356.91;;;20.83;100.00
59608;BME280;45426;44.726;10.390;2022-09-13T05:40:53;100348.34;;;20.67;100.00
59608;BME280;45426;44.726;10.390;2022-09-13T05:43:21;100353.03;;;20.73;100.00
59608;BME280;45426;44.726;10.390;2022-09-13T05:45:47;100348.00;;;20.50;100.00
59608;BME280;45426;44.726;10.390;2022-09-13T05:48:12;100351.53;;;20.54;100.00
59608;BME280;45426;44.726;10.390;2022-09-13T05:50:38;100349.19;;;20.46;100.00
59608;BME280;45426;44.726;10.390;2022-09-13T05:53:04;100351.25;;;21.05;100.00
59608;BME280;45426;44.726;10.390;2022-09-13T05:55:30;100350.50;;;21.01;100.00
59608;BME280;45426;44.726;10.390;2022-09-13T05:57:56;100345.75;;;21.54;100.00
59608;BME280;45426;44.726;10.390;2022-09-13T06:00:22;100352.03;;;21.96;100.00
59608;BME280;45426;44.726;10.390;2022-09-13T06:02:48;100350.53;;;21.87;100.00
59608;BME280;45426;44.726;10.390;2022-09-13T06:05:13;100345.44;;;22.20;100.00
59608;BME280;45426;44.726;10.390;2022-09-13T06:07:40;100349.91;;;22.72;100.00
59608;BME280;45426;44.726;10.390;2022-09-13T06:10:07;100346.72;;;23.04;100.00
59608;BME280;45426;44.726;10.390;2022-09-13T06:12:32;100344.94;;;23.61;100.00
59608;BME280;45426;44.726;10.390;2022-09-13T06:14:58;100347.00;;;24.41;100.00
59608;BME280;45426;44.726;10.390;2022-09-13T06:17:23;100356.13;;;24.21;100.00
59608;BME280;45426;44.726;10.390;2022-09-13T06:19:48;100353.31;;;26.35;100.00
59608;BME280;45426;44.726;10.390;2022-09-13T06:22:14;100361.47;;;28.46;100.00
59608;BME280;45426;44.726;10.390;2022-09-13T06:24:39;100353.41;;;30.31;100.00
59608;BME280;45426;44.726;10.390;2022-09-13T06:27:05;100363.22;;;29.34;100.00
59608;BME280;45426;44.726;10.390;2022-09-13T06:29:30;100349.59;;;32.36;100.00
59608;BME280;45426;44.726;10.390;2022-09-13T06:31:56;100354.00;;;34.42;100.00
59608;BME280;45426;44.726;10.390;2022-09-13T06:34:21;100359.75;;;34.59;100.00
59608;BME280;45426;44.726;10.390;2022-09-13T06:36:46;100357.59;;;30.35;100.00
59608;BME280;45426;44.726;10.390;2022-09-13T06:39:12;100348.94;;;32.11;100.00
59608;BME280;45426;44.726;10.390;2022-09-13T06:41:37;100354.28;;;33.25;100.00
59608;BME280;45426;44.726;10.390;2022-09-13T06:44:03;100349.47;;;30.47;100.00
59608;BME280;45426;44.726;10.390;2022-09-13T06:46:30;100336.56;;;30.49;100.00
59608;BME280;45426;44.726;10.390;2022-09-13T06:49:04;100342.59;;;32.61;100.00
59608;BME280;45426;44.726;10.390;2022-09-13T06:51:31;100343.06;;;32.75;100.00
59608;BME280;45426;44.726;10.390;2022-09-13T06:53:57;100340.56;;;35.07;100.00
59608;BME280;45426;44.726;10.390;2022-09-13T06:56:29;100340.56;;;34.32;100.00
59608;BME280;45426;44.726;10.390;2022-09-13T06:59:05;100324.59;;;37.22;100.00
59608;BME280;45426;44.726;10.390;2022-09-13T07:01:36;100324.34;;;37.20;100.00
59608;BME280;45426;44.726;10.390;2022-09-13T07:04:04;100324.63;;;38.90;100.00
59608;BME280;45426;44.726;10.390;2022-09-13T07:06:32;100331.19;;;39.48;100.00
59608;BME280;45426;44.726;10.390;2022-09-13T07:08:59;100335.81;;;38.82;100.00
59608;BME280;45426;44.726;10.390;2022-09-13T07:11:28;100322.25;;;39.38;100.00
59608;BME280;45426;44.726;10.390;2022-09-13T07:13:55;100323.72;;;37.44;100.00
59608;BME280;45426;44.726;10.390;2022-09-13T07:16:25;100320.63;;;36.72;100.00
59608;BME280;45426;44.726;10.390;2022-09-13T07:18:54;100312.31;;;40.02;100.00
59608;BME280;45426;44.726;10.390;2022-09-13T07:21:20;100303.88;;;40.42;100.00
59608;BME280;45426;44.726;10.390;2022-09-13T07:23:46;100301.25;;;40.70;100.00
59608;BME280;45426;44.726;10.390;2022-09-13T07:26:12;100302.28;;;41.47;100.00
59608;BME280;45426;44.726;10.390;2022-09-13T07:28:41;100293.44;;;41.72;100.00
59608;BME280;45426;44.726;10.390;2022-09-13T07:31:13;100298.72;;;42.10;100.00
59608;BME280;45426;44.726;10.390;2022-09-13T07:33:40;100297.81;;;41.60;100.00
59608;BME280;45426;44.726;10.390;2022-09-13T07:36:07;100296.00;;;40.48;100.00
59608;BME280;45426;44.726;10.390;2022-09-13T07:38:37;100297.41;;;41.56;100.00
59608;BME280;45426;44.726;10.390;2022-09-13T07:41:04;100302.78;;;42.43;100.00
59608;BME280;45426;44.726;10.390;2022-09-13T07:43:32;100316.47;;;43.39;100.00
59608;BME280;45426;44.726;10.390;2022-09-13T07:46:00;100324.88;;;43.00;100.00
59608;BME280;45426;44.726;10.390;2022-09-13T07:48:27;100326.97;;;43.08;100.00
59608;BME280;45426;44.726;10.390;2022-09-13T07:51:01;100331.44;;;42.30;100.00
59608;BME280;45426;44.726;10.390;2022-09-13T07:53:27;100329.94;;;40.59;100.00
59608;BME280;45426;44.726;10.390;2022-09-13T07:55:53;100339.72;;;40.77;100.00
59608;BME280;45426;44.726;10.390;2022-09-13T07:58:23;100339.13;;;41.45;100.00
59608;BME280;45426;44.726;10.390;2022-09-13T08:00:49;100335.47;;;39.92;100.00
59608;BME280;45426;44.726;10.390;2022-09-13T08:03:14;100334.13;;;38.07;100.00
59608;BME280;45426;44.726;10.390;2022-09-13T08:05:40;100335.81;;;36.46;100.00
59608;BME280;45426;44.726;10.390;2022-09-13T08:08:06;100325.75;;;35.17;100.00
59608;BME280;45426;44.726;10.390;2022-09-13T08:10:32;100326.22;;;33.77;100.00
59608;BME280;45426;44.726;10.390;2022-09-13T08:12:58;100322.84;;;32.26;100.00
59608;BME280;45426;44.726;10.390;2022-09-13T08:15:26;100325.16;;;32.42;100.00
59608;BME280;45426;44.726;10.390;2022-09-13T08:17:52;100334.47;;;32.34;100.00
59608;BME280;45426;44.726;10.390;2022-09-13T08:20:22;100341.25;;;31.97;100.00
59608;BME280;45426;44.726;10.390;2022-09-13T08:22:48;100341.31;;;31.73;100.00
59608;BME280;45426;44.726;10.390;2022-09-13T08:25:13;100339.59;;;31.51;100.00
59608;BME280;45426;44.726;10.390;2022-09-13T08:27:39;100340.75;;;31.84;100.00
59608;BME280;45426;44.726;10.390;2022-09-13T08:30:04;100341.16;;;32.51;100.00
59608;BME280;45426;44.726;10.390;2022-09-13T08:32:30;100340.66;;;32.67;100.00
59608;BME280;45426;44.726;10.390;2022-09-13T08:34:55;100340.13;;;32.84;100.00
59608;BME280;45426;44.726;10.390;2022-09-13T08:37:21;100343.28;;;32.92;100.00
59608;BME280;45426;44.726;10.390;2022-09-13T08:39:48;100334.56;;;34.82;100.00
59608;BME280;45426;44.726;10.390;2022-09-13T08:42:25;100345.34;;;33.26;100.00
59608;BME280;45426;44.726;10.390;2022-09-13T08:44:54;100347.09;;;32.23;100.00
59608;BME280;45426;44.726;10.390;2022-09-13T08:52:56;100372.97;;;31.25;100.00
59608;BME280;45426;44.726;10.390;2022-09-13T08:55:48;100376.94;;;30.76;100.00
59608;BME280;45426;44.726;10.390;2022-09-13T09:01:19;100374.25;;;30.91;100.00
59608;BME280;45426;44.726;10.390;2022-09-13T09:06:22;100374.94;;;30.67;100.00
59608;BME280;45426;44.726;10.390;2022-09-13T09:08:57;100372.41;;;30.78;100.00
59608;BME280;45426;44.726;10.390;2022-09-13T09:11:35;100374.22;;;31.24;100.00
59608;BME280;45426;44.726;10.390;2022-09-13T09:16:52;100369.88;;;30.90;100.00
59608;BME280;45426;44.726;10.390;2022-09-13T09:19:39;100382.97;;;30.84;100.00
59608;BME280;45426;44.726;10.390;2022-09-13T09:22:14;100381.84;;;30.57;100.00
59608;BME280;45426;44.726;10.390;2022-09-13T09:24:44;100370.38;;;30.36;100.00
59608;BME280;45426;44.726;10.390;2022-09-13T09:27:16;100376.84;;;31.04;100.00
59608;BME280;45426;44.726;10.390;2022-09-13T09:29:43;100371.28;;;30.85;100.00
59608;BME280;45426;44.726;10.390;2022-09-13T09:32:36;100358.84;;;30.86;100.00
59608;BME280;45426;44.726;10.390;2022-09-13T09:37:57;100363.91;;;30.64;100.00
59608;BME280;45426;44.726;10.390;2022-09-13T09:40:31;100359.19;;;30.79;100.00
59608;BME280;45426;44.726;10.390;2022-09-13T09:42:59;100359.00;;;30.92;100.00
59608;BME280;45426;44.726;10.390;2022-09-13T09:45:27;100362.47;;;31.11;100.00
59608;BME280;45426;44.726;10.390;2022-09-13T09:47:55;100349.03;;;31.15;100.00
59608;BME280;45426;44.726;10.390;2022-09-13T09:50:27;100336.94;;;31.09;100.00
59608;BME280;45426;44.726;10.390;2022-09-13T09:55:31;100321.09;;;30.96;100.00
59608;BME280;45426;44.726;10.390;2022-09-13T09:57:58;100330.81;;;30.86;100.00
59608;BME280;45426;44.726;10.390;2022-09-13T10:00:30;100323.03;;;30.81;100.00
59608;BME280;45426;44.726;10.390;2022-09-13T10:02:59;100324.00;;;30.69;100.00
59608;BME280;45426;44.726;10.390;2022-09-13T10:05:26;100312.28;;;30.46;100.00
59608;BME280;45426;44.726;10.390;2022-09-13T10:08:04;100310.25;;;30.47;100.00
59608;BME280;45426;44.726;10.390;2022-09-13T10:10:42;100307.91;;;30.78;100.00
59608;BME280;45426;44.726;10.390;2022-09-13T10:13:19;100299.13;;;30.95;100.00
59608;BME280;45426;44.726;10.390;2022-09-13T10:18:20;100293.47;;;31.04;100.00
59608;BME280;45426;44.726;10.390;2022-09-13T10:23:26;100305.34;;;30.90;100.00
59608;BME280;45426;44.726;10.390;2022-09-13T10:26:08;100305.44;;;30.81;100.00
59608;BME280;45426;44.726;10.390;2022-09-13T10:28:42;100305.84;;;30.88;100.00
59608;BME280;45426;44.726;10.390;2022-09-13T10:31:14;100299.25;;;31.25;100.00
59608;BME280;45426;44.726;10.390;2022-09-13T10:36:25;100295.69;;;31.00;100.00
59608;BME280;45426;44.726;10.390;2022-09-13T10:38:58;100293.88;;;31.12;100.00
59608;BME280;45426;44.726;10.390;2022-09-13T10:41:31;100300.34;;;31.42;100.00
59608;BME280;45426;44.726;10.390;2022-09-13T10:44:03;100292.28;;;31.20;100.00
59608;BME280;45426;44.726;10.390;2022-09-13T10:46:31;100302.88;;;31.16;100.00
59608;BME280;45426;44.726;10.390;2022-09-13T10:48:58;100298.50;;;31.39;100.00
59608;BME280;45426;44.726;10.390;2022-09-13T10:54:19;100281.75;;;31.30;100.00
59608;BME280;45426;44.726;10.390;2022-09-13T10:56:47;100278.94;;;30.82;100.00
59608;BME280;45426;44.726;10.390;2022-09-13T10:59:14;100277.91;;;30.27;100.00
59608;BME280;45426;44.726;10.390;2022-09-13T11:10:08;100262.84;;;31.54;100.00
59608;BME280;45426;44.726;10.390;2022-09-13T11:15:18;100261.53;;;31.65;100.00
59608;BME280;45426;44.726;10.390;2022-09-13T11:42:20;100235.25;;;31.68;100.00
59608;BME280;45426;44.726;10.390;2022-09-13T11:53:33;100237.31;;;31.82;100.00
59608;BME280;45426;44.726;10.390;2022-09-13T11:56:12;100229.22;;;30.58;100.00
59608;BME280;45426;44.726;10.390;2022-09-13T11:59:20;100225.22;;;30.50;100.00
59608;BME280;45426;44.726;10.390;2022-09-13T12:01:54;100220.41;;;30.99;100.00
59608;BME280;45426;44.726;10.390;2022-09-13T12:04:25;100223.47;;;31.79;100.00
59608;BME280;45426;44.726;10.390;2022-09-13T12:07:02;100218.31;;;32.07;100.00
59608;BME280;45426;44.726;10.390;2022-09-13T12:09:33;100214.56;;;32.10;100.00
59608;BME280;45426;44.726;10.390;2022-09-13T12:12:09;100207.16;;;31.98;100.00
59608;BME280;45426;44.726;10.390;2022-09-13T12:14:51;100198.84;;;31.88;100.00
59608;BME280;45426;44.726;10.390;2022-09-13T12:17:34;100207.94;;;31.98;100.00
59608;BME280;45426;44.726;10.390;2022-09-13T12:20:03;100194.13;;;31.65;100.00
59608;BME280;45426;44.726;10.390;2022-09-13T12:22:32;100195.56;;;31.90;100.00
59608;BME280;45426;44.726;10.390;2022-09-13T12:25:03;100187.41;;;31.92;100.00
59608;BME280;45426;44.726;10.390;2022-09-13T12:27:47;100189.16;;;31.89;100.00
59608;BME280;45426;44.726;10.390;2022-09-13T12:30:14;100182.78;;;31.74;100.00
59608;BME280;45426;44.726;10.390;2022-09-13T12:32:41;100182.16;;;32.15;100.00
59608;BME280;45426;44.726;10.390;2022-09-13T12:46:35;100198.25;;;31.99;100.00
59608;BME280;45426;44.726;10.390;2022-09-13T12:57:38;100192.66;;;31.54;100.00
59608;BME280;45426;44.726;10.390;2022-09-13T13:00:19;100181.34;;;31.64;100.00
59608;BME280;45426;44.726;10.390;2022-09-13T13:03:02;100185.66;;;31.95;100.00
59608;BME280;45426;44.726;10.390;2022-09-13T13:05:45;100180.66;;;31.69;100.00
59608;BME280;45426;44.726;10.390;2022-09-13T13:08:24;100180.47;;;31.58;100.00
59608;BME280;45426;44.726;10.390;2022-09-13T13:11:09;100186.97;;;31.64;100.00
59608;BME280;45426;44.726;10.390;2022-09-13T13:13:42;100184.72;;;31.68;100.00
59608;BME280;45426;44.726;10.390;2022-09-13T13:16:31;100178.25;;;31.62;100.00
59608;BME280;45426;44.726;10.390;2022-09-13T13:19:03;100170.41;;;31.66;100.00
59608;BME280;45426;44.726;10.390;2022-09-13T13:21:47;100171.34;;;31.78;100.00
59608;BME280;45426;44.726;10.390;2022-09-13T13:29:18;100160.91;;;31.78;100.00
59608;BME280;45426;44.726;10.390;2022-09-13T13:34:47;100169.31;;;32.08;100.00
59608;BME280;45426;44.726;10.390;2022-09-13T13:39:43;100160.91;;;31.78;100.00
59608;BME280;45426;44.726;10.390;2022-09-13T13:57:23;100155.78;;;31.77;100.00
59608;BME280;45426;44.726;10.390;2022-09-13T13:59:56;100160.69;;;31.97;100.00
59608;BME280;45426;44.726;10.390;2022-09-13T14:08:37;100158.88;;;31.79;100.00
59608;BME280;45426;44.726;10.390;2022-09-13T14:14:12;100150.81;;;31.86;100.00
59608;BME280;45426;44.726;10.390;2022-09-13T14:19:48;100155.09;;;31.37;100.00
59608;BME280;45426;44.726;10.390;2022-09-13T14:22:37;100146.66;;;31.07;100.00
59608;BME280;45426;44.726;10.390;2022-09-13T14:27:41;100144.91;;;30.86;100.00
59608;BME280;45426;44.726;10.390;2022-09-13T14:30:43;100139.00;;;30.84;100.00
59608;BME280;45426;44.726;10.390;2022-09-13T14:33:21;100139.31;;;30.86;100.00
59608;BME280;45426;44.726;10.390;2022-09-13T14:35:56;100136.28;;;31.13;100.00
59608;BME280;45426;44.726;10.390;2022-09-13T14:38:24;100137.75;;;31.24;100.00
59608;BME280;45426;44.726;10.390;2022-09-13T14:40:58;100136.69;;;31.36;100.00
59608;BME280;45426;44.726;10.390;2022-09-13T14:43:25;100137.56;;;31.42;100.00
59608;BME280;45426;44.726;10.390;2022-09-13T14:48:28;100125.38;;;31.45;100.00
59608;BME280;45426;44.726;10.390;2022-09-13T14:51:00;100129.53;;;31.35;100.00
59608;BME280;45426;44.726;10.390;2022-09-13T14:53:30;100122.59;;;30.52;100.00
59608;BME280;45426;44.726;10.390;2022-09-13T14:59:04;100128.78;;;31.49;100.00
59608;BME280;45426;44.726;10.390;2022-09-13T15:01:33;100123.94;;;31.20;100.00
59608;BME280;45426;44.726;10.390;2022-09-13T15:04:01;100127.00;;;31.07;100.00
59608;BME280;45426;44.726;10.390;2022-09-13T15:06:30;100136.28;;;30.74;100.00
59608;BME280;45426;44.726;10.390;2022-09-13T15:09:25;100129.19;;;30.88;100.00
59608;BME280;45426;44.726;10.390;2022-09-13T15:14:32;100124.03;;;30.87;100.00
59608;BME280;45426;44.726;10.390;2022-09-13T15:17:12;100110.44;;;30.94;100.00
59608;BME280;45426;44.726;10.390;2022-09-13T15:19:49;100116.91;;;30.37;100.00
59608;BME280;45426;44.726;10.390;2022-09-13T15:22:20;100111.63;;;31.18;100.00
59608;BME280;45426;44.726;10.390;2022-09-13T15:24:53;100107.00;;;30.75;100.00
59608;BME280;45426;44.726;10.390;2022-09-13T15:27:30;100108.22;;;30.99;100.00
59608;BME280;45426;44.726;10.390;2022-09-13T15:29:58;100119.53;;;30.65;100.00
59608;BME280;45426;44.726;10.390;2022-09-13T15:32:39;100109.59;;;30.64;100.00
59608;BME280;45426;44.726;10.390;2022-09-13T15:35:17;100106.25;;;30.75;100.00
59608;BME280;45426;44.726;10.390;2022-09-13T15:37:46;100112.75;;;30.57;100.00
59608;BME280;45426;44.726;10.390;2022-09-13T15:40:20;100109.72;;;30.85;100.00
59608;BME280;45426;44.726;10.390;2022-09-13T15:42:48;100109.59;;;30.64;100.00
59608;BME280;45426;44.726;10.390;2022-09-13T15:45:14;100114.31;;;30.73;100.00
59608;BME280;45426;44.726;10.390;2022-09-13T15:47:43;100112.09;;;30.62;100.00
59608;BME280;45426;44.726;10.390;2022-09-13T15:50:18;100108.69;;;30.58;100.00
59608;BME280;45426;44.726;10.390;2022-09-13T15:52:44;100106.25;;;30.51;100.00
59608;BME280;45426;44.726;10.390;2022-09-13T15:55:10;100105.19;;;30.48;100.00
59608;BME280;45426;44.726;10.390;2022-09-13T15:57:36;100095.13;;;30.42;100.00
59608;BME280;45426;44.726;10.390;2022-09-13T16:00:02;100095.47;;;30.34;100.00
59608;BME280;45426;44.726;10.390;2022-09-13T16:02:30;100095.50;;;30.25;100.00